createdAt,value
2022-11-18T00:00:43.175Z,0.00
2022-11-18T00:01:38.438Z,0.00
2022-11-18T00:02:34.293Z,0.00
2022-11-18T00:03:29.477Z,0.00
2022-11-18T00:04:25.308Z,0.00
2022-11-18T00:05:20.379Z,0.00
2022-11-18T00:06:15.763Z,0.00
2022-11-18T00:07:11.351Z,0.00
2022-11-18T00:08:06.418Z,0.00
2022-11-18T00:09:01.533Z,0.00
2022-11-18T00:09:58.039Z,0.00
2022-11-18T00:10:53.023Z,0.00
2022-11-18T00:11:48.913Z,0.00
2022-11-18T00:12:44.005Z,0.00
2022-11-18T00:13:39.165Z,0.00
2022-11-18T00:14:35.024Z,0.00
2022-11-18T00:15:31.799Z,0.00
2022-11-18T00:16:26.003Z,0.00
2022-11-18T00:17:21.198Z,0.00
2022-11-18T00:18:16.184Z,0.00
2022-11-18T00:19:12.059Z,0.00
2022-11-18T00:20:07.162Z,0.00
2022-11-18T00:21:02.402Z,0.00
2022-11-18T00:21:58.653Z,0.00
2022-11-18T00:22:53.825Z,0.00
2022-11-18T00:23:49.691Z,0.00
2022-11-18T00:24:44.800Z,0.00
2022-11-18T00:25:40.183Z,0.00
2022-11-18T00:26:35.915Z,0.00
2022-11-18T00:27:31.033Z,0.00
2022-11-18T00:28:26.921Z,0.00
2022-11-18T00:29:22.013Z,0.00
2022-11-18T00:30:17.439Z,0.00
2022-11-18T00:31:13.173Z,0.00
2022-11-18T00:32:08.376Z,0.00
2022-11-18T00:33:03.476Z,0.00
2022-11-18T00:34:00.810Z,0.00
2022-11-18T00:34:55.163Z,0.00
2022-11-18T00:35:51.044Z,0.00
2022-11-18T00:36:46.138Z,0.00
2022-11-18T00:37:41.319Z,0.00
2022-11-18T00:38:37.144Z,0.00
2022-11-18T00:39:32.373Z,0.00
2022-11-18T00:40:28.175Z,0.00
2022-11-18T00:41:23.323Z,0.00
2022-11-18T00:42:18.606Z,0.00
2022-11-18T00:43:14.414Z,0.00
2022-11-18T00:44:09.766Z,0.00
2022-11-18T00:45:04.743Z,0.00
2022-11-18T00:46:01.388Z,0.00
2022-11-18T00:46:56.558Z,0.00
2022-11-18T00:47:52.344Z,0.00
2022-11-18T00:48:47.451Z,0.00
2022-11-18T00:49:42.593Z,0.00
2022-11-18T00:50:38.450Z,0.00
2022-11-18T00:51:33.593Z,0.00
2022-11-18T00:52:29.528Z,0.00
2022-11-18T00:53:24.673Z,0.00
2022-11-18T00:54:19.667Z,0.00
2022-11-18T00:55:15.512Z,0.00
2022-11-18T00:56:10.688Z,0.00
2022-11-18T00:57:05.936Z,0.00
2022-11-18T00:58:02.300Z,0.00
2022-11-18T00:58:57.496Z,0.00
2022-11-18T00:59:53.226Z,0.00
2022-11-18T01:00:48.342Z,0.00
2022-11-18T01:01:43.793Z,0.00
2022-11-18T01:02:38.788Z,0.00
2022-11-18T01:03:34.060Z,0.00
2022-11-18T01:04:29.892Z,0.00
2022-11-18T01:05:25.019Z,0.00
2022-11-18T01:06:20.228Z,0.00
2022-11-18T01:07:16.656Z,0.00
2022-11-18T01:08:11.828Z,0.00
2022-11-18T01:09:07.734Z,0.00
2022-11-18T01:10:02.806Z,0.00
2022-11-18T01:10:58.204Z,0.00
2022-11-18T01:11:53.895Z,0.00
2022-11-18T01:12:54.116Z,0.00
2022-11-18T01:13:45.893Z,0.00
2022-11-18T01:14:40.050Z,0.00
2022-11-18T01:15:35.322Z,0.00
2022-11-18T01:16:32.271Z,0.00
2022-11-18T01:17:27.116Z,0.00
2022-11-18T01:18:22.228Z,0.00
2022-11-18T01:19:17.411Z,0.00
2022-11-18T01:20:12.641Z,0.00
2022-11-18T01:21:07.612Z,0.00
2022-11-18T01:22:02.665Z,0.00
2022-11-18T01:23:01.419Z,0.00
2022-11-18T01:23:56.657Z,0.00
2022-11-18T01:24:51.902Z,0.00
2022-11-18T01:25:47.044Z,0.00
2022-11-18T01:26:42.152Z,0.00
2022-11-18T01:27:37.285Z,0.00
2022-11-18T01:28:33.215Z,0.00
2022-11-18T01:29:28.287Z,0.00
2022-11-18T01:30:23.438Z,0.00
2022-11-18T01:31:18.519Z,0.00
2022-11-18T01:32:29.061Z,0.00
2022-11-18T01:33:09.921Z,0.00
2022-11-18T01:34:05.173Z,0.00
2022-11-18T01:35:00.255Z,0.00
2022-11-18T01:35:55.708Z,0.00
2022-11-18T01:36:50.650Z,0.00
2022-11-18T01:37:45.772Z,0.00
2022-11-18T01:38:40.858Z,0.00
2022-11-18T01:39:36.022Z,0.00
2022-11-18T01:40:31.032Z,0.00
2022-11-18T01:41:26.135Z,0.00
2022-11-18T01:42:21.201Z,0.00
2022-11-18T01:43:18.491Z,0.00
2022-11-18T01:44:13.565Z,0.00
2022-11-18T01:45:08.673Z,0.00
2022-11-18T01:46:03.636Z,0.00
2022-11-18T01:46:58.741Z,0.00
2022-11-18T01:47:53.817Z,0.00
2022-11-18T01:48:48.937Z,0.00
2022-11-18T01:49:44.013Z,0.00
2022-11-18T01:50:39.157Z,0.00
2022-11-18T01:51:34.093Z,0.00
2022-11-18T01:52:29.187Z,0.00
2022-11-18T01:53:24.192Z,0.00
2022-11-18T01:54:19.471Z,0.00
2022-11-18T01:55:14.408Z,0.00
2022-11-18T01:56:09.636Z,0.00
2022-11-18T01:57:04.608Z,0.00
2022-11-18T01:58:05.254Z,0.00
2022-11-18T01:59:00.401Z,0.00
2022-11-18T01:59:55.392Z,0.00
2022-11-18T02:00:50.481Z,0.00
2022-11-18T02:01:45.751Z,0.00
2022-11-18T02:02:40.861Z,0.00
2022-11-18T02:03:36.023Z,0.00
2022-11-18T02:04:31.117Z,0.00
2022-11-18T02:05:26.372Z,0.00
2022-11-18T02:06:21.455Z,0.00
2022-11-18T02:07:16.654Z,0.00
2022-11-18T02:08:11.646Z,0.00
2022-11-18T02:09:06.726Z,0.00
2022-11-18T02:10:02.035Z,0.00
2022-11-18T02:10:57.018Z,0.00
2022-11-18T02:11:52.127Z,0.00
2022-11-18T02:12:47.232Z,0.00
2022-11-18T02:13:42.343Z,0.00
2022-11-18T02:14:37.715Z,0.00
2022-11-18T02:15:32.739Z,0.00
2022-11-18T02:16:27.849Z,0.00
2022-11-18T02:17:22.945Z,0.00
2022-11-18T02:18:18.169Z,0.00
2022-11-18T02:19:13.233Z,0.00
2022-11-18T02:20:08.440Z,0.00
2022-11-18T02:21:04.373Z,0.00
2022-11-18T02:21:58.825Z,0.00
2022-11-18T02:22:53.898Z,0.00
2022-11-18T02:23:48.983Z,0.00
2022-11-18T02:24:44.082Z,0.00
2022-11-18T02:25:39.255Z,0.00
2022-11-18T02:26:34.191Z,0.00
2022-11-18T02:27:29.298Z,0.00
2022-11-18T02:28:24.366Z,0.00
2022-11-18T02:29:19.647Z,0.00
2022-11-18T02:30:14.388Z,0.00
2022-11-18T02:31:09.575Z,0.00
2022-11-18T02:32:10.207Z,0.00
2022-11-18T02:33:05.327Z,0.00
2022-11-18T02:34:00.435Z,0.00
2022-11-18T02:34:56.276Z,0.00
2022-11-18T02:35:51.427Z,0.00
2022-11-18T02:36:46.655Z,0.00
2022-11-18T02:37:42.883Z,0.00
2022-11-18T02:38:38.154Z,0.00
2022-11-18T02:39:33.972Z,0.00
2022-11-18T02:40:29.231Z,0.00
2022-11-18T02:41:24.459Z,0.00
2022-11-18T02:42:20.151Z,0.00
2022-11-18T02:43:15.246Z,0.00
2022-11-18T02:44:11.084Z,0.00
2022-11-18T02:45:06.161Z,0.00
2022-11-18T02:46:01.853Z,0.00
2022-11-18T02:46:57.255Z,0.00
2022-11-18T02:47:52.513Z,0.00
2022-11-18T02:48:47.600Z,0.00
2022-11-18T02:49:44.083Z,0.00
2022-11-18T02:50:39.376Z,0.00
2022-11-18T02:51:35.047Z,0.00
2022-11-18T02:52:30.121Z,0.00
2022-11-18T02:53:25.278Z,0.00
2022-11-18T02:54:21.379Z,0.00
2022-11-18T02:55:16.252Z,0.00
2022-11-18T02:56:12.043Z,0.00
2022-11-18T02:57:07.309Z,0.00
2022-11-18T02:58:02.432Z,0.00
2022-11-18T02:58:58.251Z,0.00
2022-11-18T02:59:53.379Z,0.00
2022-11-18T03:00:48.491Z,0.00
2022-11-18T03:01:44.906Z,0.00
2022-11-18T03:02:40.212Z,0.00
2022-11-18T03:03:35.871Z,0.00
2022-11-18T03:04:31.007Z,0.00
2022-11-18T03:05:26.087Z,0.00
2022-11-18T03:06:21.946Z,0.00
2022-11-18T03:07:17.365Z,0.00
2022-11-18T03:08:12.918Z,0.00
2022-11-18T03:09:08.010Z,0.00
2022-11-18T03:10:03.157Z,0.00
2022-11-18T03:10:58.963Z,0.00
2022-11-18T03:11:54.255Z,0.00
2022-11-18T03:12:49.479Z,0.00
2022-11-18T03:13:45.843Z,0.00
2022-11-18T03:14:40.950Z,0.00
2022-11-18T03:15:36.801Z,0.00
2022-11-18T03:16:31.934Z,0.00
2022-11-18T03:17:27.353Z,0.00
2022-11-18T03:18:23.033Z,0.00
2022-11-18T03:19:18.551Z,0.00
2022-11-18T03:20:14.053Z,0.00
2022-11-18T03:21:09.183Z,0.00
2022-11-18T03:22:04.432Z,0.00
2022-11-18T03:23:00.127Z,0.00
2022-11-18T03:23:55.254Z,0.00
2022-11-18T03:24:50.400Z,0.00
2022-11-18T03:25:46.780Z,0.00
2022-11-18T03:26:41.944Z,0.00
2022-11-18T03:27:37.740Z,0.00
2022-11-18T03:28:32.976Z,0.00
2022-11-18T03:29:28.123Z,0.00
2022-11-18T03:30:23.928Z,0.00
2022-11-18T03:31:19.098Z,0.00
2022-11-18T03:32:14.907Z,0.00
2022-11-18T03:33:09.974Z,0.00
2022-11-18T03:34:05.128Z,0.00
2022-11-18T03:35:00.225Z,0.00
2022-11-18T03:35:55.608Z,0.00
2022-11-18T03:36:52.313Z,0.00
2022-11-18T03:37:47.064Z,0.00
2022-11-18T03:38:42.883Z,0.00
2022-11-18T03:39:37.975Z,0.00
2022-11-18T03:40:33.347Z,0.00
2022-11-18T03:41:29.102Z,0.00
2022-11-18T03:42:24.199Z,0.00
2022-11-18T03:43:20.031Z,0.00
2022-11-18T03:44:15.110Z,0.00
2022-11-18T03:45:10.622Z,0.00
2022-11-18T03:46:06.158Z,0.00
2022-11-18T03:47:01.433Z,0.00
2022-11-18T03:47:56.544Z,0.00
2022-11-18T03:48:53.029Z,0.00
2022-11-18T03:49:48.156Z,0.00
2022-11-18T03:50:43.412Z,0.00
2022-11-18T03:51:38.485Z,0.00
2022-11-18T03:52:36.333Z,0.00
2022-11-18T03:53:31.409Z,0.00
2022-11-18T03:54:26.684Z,0.00
2022-11-18T03:55:21.767Z,0.00
2022-11-18T03:56:18.378Z,0.00
2022-11-18T03:57:13.376Z,0.00
2022-11-18T03:58:08.743Z,0.00
2022-11-18T03:59:04.383Z,0.00
2022-11-18T03:59:59.528Z,0.00
2022-11-18T04:00:54.645Z,0.00
2022-11-18T04:01:49.940Z,0.00
2022-11-18T04:02:45.113Z,0.00
2022-11-18T04:03:40.377Z,0.00
2022-11-18T04:04:36.636Z,0.00
2022-11-18T04:05:31.754Z,0.00
2022-11-18T04:06:26.889Z,0.00
2022-11-18T04:07:22.042Z,0.00
2022-11-18T04:08:17.198Z,0.00
2022-11-18T04:09:13.596Z,0.00
2022-11-18T04:10:08.567Z,0.00
2022-11-18T04:11:03.902Z,0.00
2022-11-18T04:11:58.998Z,0.00
2022-11-18T04:12:54.113Z,0.00
2022-11-18T04:13:49.193Z,0.00
2022-11-18T04:14:44.351Z,0.00
2022-11-18T04:15:39.292Z,0.00
2022-11-18T04:16:34.407Z,0.00
2022-11-18T04:17:29.387Z,0.00
2022-11-18T04:18:24.510Z,0.00
2022-11-18T04:19:19.793Z,0.00
2022-11-18T04:20:14.782Z,0.00
2022-11-18T04:21:10.432Z,0.00
2022-11-18T04:22:05.541Z,0.00
2022-11-18T04:23:00.633Z,0.00
2022-11-18T04:23:55.757Z,0.00
2022-11-18T04:24:50.730Z,0.00
2022-11-18T04:25:45.856Z,0.00
2022-11-18T04:26:40.830Z,0.00
2022-11-18T04:27:35.944Z,0.00
2022-11-18T04:28:30.933Z,0.00
2022-11-18T04:29:26.169Z,0.00
2022-11-18T04:30:21.414Z,0.00
2022-11-18T04:31:16.446Z,0.00
2022-11-18T04:32:17.239Z,0.00
2022-11-18T04:33:12.487Z,0.00
2022-11-18T04:34:07.747Z,0.00
2022-11-18T04:35:03.553Z,0.00
2022-11-18T04:35:58.681Z,0.00
2022-11-18T04:36:53.869Z,0.00
2022-11-18T04:37:50.173Z,0.00
2022-11-18T04:38:45.493Z,0.00
2022-11-18T04:39:41.280Z,0.00
2022-11-18T04:40:36.484Z,0.00
2022-11-18T04:41:31.620Z,0.00
2022-11-18T04:42:27.423Z,0.00
2022-11-18T04:43:22.583Z,0.00
2022-11-18T04:44:18.408Z,0.00
2022-11-18T04:45:13.474Z,0.00
2022-11-18T04:46:08.775Z,0.00
2022-11-18T04:47:04.465Z,0.00
2022-11-18T04:48:03.563Z,0.00
2022-11-18T04:48:54.760Z,0.00
2022-11-18T04:49:49.923Z,0.00
2022-11-18T04:50:45.749Z,0.00
2022-11-18T04:51:41.008Z,0.00
2022-11-18T04:52:36.139Z,0.00
2022-11-18T04:53:32.503Z,0.00
2022-11-18T04:54:27.628Z,0.00
2022-11-18T04:55:23.466Z,0.00
2022-11-18T04:56:18.591Z,0.00
2022-11-18T04:57:13.807Z,0.00
2022-11-18T04:58:09.483Z,0.00
2022-11-18T04:59:04.693Z,0.00
2022-11-18T05:00:00.483Z,0.00
2022-11-18T05:00:55.665Z,0.00
2022-11-18T05:01:51.036Z,0.00
2022-11-18T05:02:46.816Z,0.00
2022-11-18T05:03:45.092Z,0.00
2022-11-18T05:04:38.084Z,0.00
2022-11-18T05:05:32.269Z,0.00
2022-11-18T05:06:28.129Z,0.00
2022-11-18T05:07:23.321Z,0.00
2022-11-18T05:08:18.486Z,0.00
2022-11-18T05:09:15.132Z,0.00
2022-11-18T05:10:10.060Z,0.00
2022-11-18T05:11:06.072Z,0.00
2022-11-18T05:12:01.192Z,0.00
2022-11-18T05:12:56.429Z,0.00
2022-11-18T05:13:52.135Z,0.00
2022-11-18T05:14:50.451Z,0.00
2022-11-18T05:15:43.199Z,0.00
2022-11-18T05:16:38.229Z,0.00
2022-11-18T05:17:33.398Z,0.00
2022-11-18T05:18:29.147Z,0.00
2022-11-18T05:19:24.277Z,0.00
2022-11-18T05:20:19.517Z,0.00
2022-11-18T05:21:15.904Z,0.00
2022-11-18T05:22:11.095Z,0.00
2022-11-18T05:23:06.916Z,0.00
2022-11-18T05:24:02.036Z,0.00
2022-11-18T05:24:57.436Z,0.00
2022-11-18T05:25:55.981Z,0.00
2022-11-18T05:26:49.331Z,0.00
2022-11-18T05:27:44.249Z,0.00
2022-11-18T05:28:39.339Z,0.00
2022-11-18T05:29:34.788Z,0.00
2022-11-18T05:30:30.423Z,0.00
2022-11-18T05:31:25.567Z,0.00
2022-11-18T05:32:20.713Z,0.00
2022-11-18T05:33:15.824Z,0.00
2022-11-18T05:34:12.690Z,0.00
2022-11-18T05:35:07.756Z,0.00
2022-11-18T05:36:02.900Z,0.00
2022-11-18T05:36:58.771Z,0.00
2022-11-18T05:37:53.904Z,0.00
2022-11-18T05:38:49.137Z,0.00
2022-11-18T05:39:45.382Z,0.00
2022-11-18T05:40:40.655Z,0.00
2022-11-18T05:41:36.651Z,0.00
2022-11-18T05:42:31.614Z,0.00
2022-11-18T05:43:27.017Z,0.00
2022-11-18T05:44:22.756Z,0.00
2022-11-18T05:45:17.877Z,0.00
2022-11-18T05:46:13.727Z,0.00
2022-11-18T05:47:08.829Z,0.00
2022-11-18T05:48:04.385Z,0.00
2022-11-18T05:48:59.949Z,0.00
2022-11-18T05:49:55.163Z,0.00
2022-11-18T05:50:50.303Z,0.00
2022-11-18T05:51:45.473Z,0.00
2022-11-18T05:52:40.728Z,0.00
2022-11-18T05:53:36.174Z,0.00
2022-11-18T05:54:31.312Z,1.00
2022-11-18T05:55:26.445Z,1.00
2022-11-18T05:56:22.323Z,1.00
2022-11-18T05:57:17.556Z,1.00
2022-11-18T05:58:12.579Z,1.00
2022-11-18T05:59:07.711Z,1.00
2022-11-18T06:00:02.778Z,1.00
2022-11-18T06:00:57.761Z,2.00
2022-11-18T06:01:52.749Z,1.00
2022-11-18T06:02:47.955Z,2.00
2022-11-18T06:03:42.942Z,2.00
2022-11-18T06:04:38.194Z,2.00
2022-11-18T06:05:33.244Z,3.00
2022-11-18T06:06:28.362Z,2.00
2022-11-18T06:07:23.607Z,3.00
2022-11-18T06:08:18.657Z,4.00
2022-11-18T06:09:13.665Z,5.00
2022-11-18T06:10:08.839Z,7.00
2022-11-18T06:11:03.867Z,7.00
2022-11-18T06:11:59.553Z,9.00
2022-11-18T06:12:54.731Z,10.00
2022-11-18T06:13:49.911Z,11.00
2022-11-18T06:14:45.226Z,15.00
2022-11-18T06:15:40.348Z,17.00
2022-11-18T06:16:40.717Z,19.00
2022-11-18T06:17:31.728Z,22.00
2022-11-18T06:18:25.968Z,24.00
2022-11-18T06:19:21.183Z,29.00
2022-11-18T06:20:16.442Z,33.00
2022-11-18T06:21:11.667Z,40.00
2022-11-18T06:22:06.967Z,43.00
2022-11-18T06:23:02.082Z,49.00
2022-11-18T06:23:57.254Z,51.00
2022-11-18T06:24:52.499Z,57.00
2022-11-18T06:25:47.650Z,60.00
2022-11-18T06:26:42.826Z,68.00
2022-11-18T06:27:38.017Z,70.00
2022-11-18T06:28:33.379Z,80.00
2022-11-18T06:29:29.004Z,86.00
2022-11-18T06:30:23.909Z,86.00
2022-11-18T06:31:19.116Z,102.00
2022-11-18T06:32:14.396Z,101.00
2022-11-18T06:33:09.587Z,106.00
2022-11-18T06:34:04.855Z,116.00
2022-11-18T06:35:00.197Z,127.00
2022-11-18T06:35:55.446Z,135.00
2022-11-18T06:36:50.966Z,142.00
2022-11-18T06:37:46.084Z,154.00
2022-11-18T06:38:41.190Z,170.00
2022-11-18T06:39:36.498Z,178.00
2022-11-18T06:40:34.668Z,202.00
2022-11-18T06:41:27.095Z,212.00
2022-11-18T06:42:22.272Z,225.00
2022-11-18T06:43:17.585Z,232.00
2022-11-18T06:44:13.176Z,232.00
2022-11-18T06:45:08.255Z,246.00
2022-11-18T06:46:08.675Z,241.00
2022-11-18T06:46:59.963Z,248.00
2022-11-18T06:47:54.296Z,245.00
2022-11-18T06:48:49.614Z,236.00
2022-11-18T06:49:44.964Z,245.00
2022-11-18T06:50:40.266Z,259.00
2022-11-18T06:51:35.601Z,253.00
2022-11-18T06:52:30.866Z,282.00
2022-11-18T06:53:26.281Z,312.00
2022-11-18T06:54:21.602Z,350.00
2022-11-18T06:55:16.752Z,409.00
2022-11-18T06:56:12.089Z,431.00
2022-11-18T06:57:07.102Z,470.00
2022-11-18T06:58:02.127Z,536.00
2022-11-18T06:58:57.217Z,616.00
2022-11-18T06:59:52.253Z,732.00
2022-11-18T07:00:47.280Z,856.00
2022-11-18T07:01:42.381Z,978.00
2022-11-18T07:02:37.467Z,997.00
2022-11-18T07:03:33.250Z,1070.00
2022-11-18T07:04:28.319Z,1119.00
2022-11-18T07:05:23.372Z,1164.00
2022-11-18T07:06:18.499Z,1243.00
2022-11-18T07:07:13.596Z,1330.00
2022-11-18T07:08:08.535Z,1472.00
2022-11-18T07:09:03.642Z,1447.00
2022-11-18T07:09:58.682Z,1526.00
2022-11-18T07:10:53.783Z,1527.00
2022-11-18T07:11:48.852Z,1442.00
2022-11-18T07:12:43.995Z,1495.00
2022-11-18T07:13:43.375Z,1445.00
2022-11-18T07:14:34.053Z,1377.00
2022-11-18T07:15:29.121Z,1376.00
2022-11-18T07:16:24.218Z,1267.00
2022-11-18T07:17:19.692Z,1318.00
2022-11-18T07:18:14.919Z,1213.00
2022-11-18T07:19:10.258Z,1203.00
2022-11-18T07:20:05.667Z,1136.00
2022-11-18T07:21:01.129Z,1135.00
2022-11-18T07:21:56.505Z,1118.00
2022-11-18T07:22:51.701Z,1148.00
2022-11-18T07:23:47.075Z,1138.00
2022-11-18T07:24:42.365Z,1119.00
2022-11-18T07:25:42.520Z,1125.00
2022-11-18T07:26:34.120Z,1127.00
2022-11-18T07:27:28.452Z,1121.00
2022-11-18T07:28:23.765Z,1102.00
2022-11-18T07:29:19.401Z,1200.00
2022-11-18T07:30:14.456Z,1246.00
2022-11-18T07:31:09.819Z,1239.00
2022-11-18T07:32:05.416Z,1305.00
2022-11-18T07:33:00.491Z,1267.00
2022-11-18T07:33:55.832Z,1334.00
2022-11-18T07:34:51.234Z,1416.00
2022-11-18T07:35:46.552Z,1505.00
2022-11-18T07:36:41.897Z,1732.00
2022-11-18T07:37:37.206Z,1915.00
2022-11-18T07:38:32.607Z,2144.00
2022-11-18T07:39:28.003Z,2187.00
2022-11-18T07:40:23.135Z,2406.00
2022-11-18T07:41:18.123Z,2546.00
2022-11-18T07:42:13.125Z,2582.00
2022-11-18T07:43:10.279Z,2671.00
2022-11-18T07:44:05.444Z,2836.00
2022-11-18T07:45:00.576Z,2968.00
2022-11-18T07:45:55.598Z,3202.00
2022-11-18T07:46:50.566Z,3260.00
2022-11-18T07:47:45.752Z,3383.00
2022-11-18T07:48:40.780Z,3326.00
2022-11-18T07:49:35.769Z,3646.00
2022-11-18T07:50:30.862Z,3755.00
2022-11-18T07:51:25.981Z,3979.00
2022-11-18T07:52:20.974Z,4145.00
2022-11-18T07:53:16.140Z,4341.00
2022-11-18T07:54:11.103Z,4536.00
2022-11-18T07:55:06.128Z,4505.00
2022-11-18T07:56:01.501Z,4586.00
2022-11-18T07:56:56.914Z,4654.00
2022-11-18T07:57:52.342Z,4844.00
2022-11-18T07:58:47.709Z,5068.00
2022-11-18T07:59:43.231Z,5233.00
2022-11-18T08:00:38.522Z,5325.00
2022-11-18T08:01:35.317Z,5330.00
2022-11-18T08:02:30.774Z,5528.00
2022-11-18T08:03:26.204Z,5686.00
2022-11-18T08:04:21.578Z,5918.00
2022-11-18T08:05:18.215Z,6159.00
2022-11-18T08:06:15.252Z,6112.00
2022-11-18T08:07:10.645Z,6041.00
2022-11-18T08:08:06.048Z,5957.00
2022-11-18T08:09:01.651Z,6123.00
2022-11-18T08:09:56.887Z,5970.00
2022-11-18T08:10:52.384Z,6141.00
2022-11-18T08:11:47.685Z,5941.00
2022-11-18T08:12:43.038Z,6627.00
2022-11-18T08:13:38.468Z,6463.00
2022-11-18T08:14:33.821Z,6570.00
2022-11-18T08:15:29.195Z,6540.00
2022-11-18T08:16:24.567Z,6470.00
2022-11-18T08:17:20.076Z,6488.00
2022-11-18T08:18:15.305Z,6577.00
2022-11-18T08:19:11.436Z,6779.00
2022-11-18T08:20:06.813Z,6724.00
2022-11-18T08:21:02.205Z,6700.00
2022-11-18T08:21:57.572Z,6168.00
2022-11-18T08:22:52.957Z,5750.00
2022-11-18T08:23:48.458Z,5432.00
2022-11-18T08:24:43.935Z,5312.00
2022-11-18T08:25:39.176Z,5286.00
2022-11-18T08:26:34.606Z,5303.00
2022-11-18T08:27:29.991Z,5459.00
2022-11-18T08:28:29.654Z,5602.00
2022-11-18T08:29:25.842Z,5483.00
2022-11-18T08:30:20.271Z,5062.00
2022-11-18T08:31:15.632Z,4526.00
2022-11-18T08:32:11.298Z,4465.00
2022-11-18T08:33:06.596Z,4682.00
2022-11-18T08:34:02.070Z,5386.00
2022-11-18T08:34:57.325Z,5566.00
2022-11-18T08:35:52.707Z,5285.00
2022-11-18T08:36:48.077Z,5289.00
2022-11-18T08:37:43.493Z,5611.00
2022-11-18T08:38:38.846Z,6192.00
2022-11-18T08:39:34.337Z,6515.00
2022-11-18T08:40:29.698Z,6711.00
2022-11-18T08:41:25.227Z,6735.00
2022-11-18T08:42:23.275Z,6695.00
2022-11-18T08:43:15.292Z,6925.00
2022-11-18T08:44:10.306Z,7106.00
2022-11-18T08:45:05.432Z,7502.00
2022-11-18T08:46:00.404Z,7844.00
2022-11-18T08:46:55.525Z,7921.00
2022-11-18T08:47:50.508Z,7937.00
2022-11-18T08:48:45.535Z,7729.00
2022-11-18T08:49:40.618Z,7643.00
2022-11-18T08:50:35.697Z,7743.00
2022-11-18T08:51:33.969Z,8084.00
2022-11-18T08:52:29.328Z,8175.00
2022-11-18T08:53:24.749Z,7913.00
2022-11-18T08:54:20.255Z,7663.00
2022-11-18T08:55:15.689Z,6880.00
2022-11-18T08:56:11.169Z,5984.00
2022-11-18T08:57:06.542Z,5411.00
2022-11-18T08:58:02.271Z,5369.00
2022-11-18T08:58:57.529Z,5299.00
2022-11-18T08:59:53.002Z,5328.00
2022-11-18T09:00:49.339Z,5266.00
2022-11-18T09:01:44.812Z,5370.00
2022-11-18T09:02:40.655Z,5507.00
2022-11-18T09:03:35.533Z,5591.00
2022-11-18T09:04:30.940Z,5634.00
2022-11-18T09:05:26.386Z,5457.00
2022-11-18T09:06:21.942Z,5161.00
2022-11-18T09:07:17.527Z,5005.00
2022-11-18T09:08:13.113Z,4752.00
2022-11-18T09:09:08.523Z,4934.00
2022-11-18T09:10:03.939Z,4879.00
2022-11-18T09:10:59.315Z,4587.00
2022-11-18T09:11:55.034Z,5118.00
2022-11-18T09:12:50.013Z,5406.00
2022-11-18T09:14:32.784Z,6074.00
2022-11-18T09:15:37.064Z,5532.00
2022-11-18T09:16:31.580Z,5922.00
2022-11-18T09:17:27.014Z,5967.00
2022-11-18T09:18:22.222Z,6165.00
2022-11-18T09:19:45.524Z,6145.00
2022-11-18T09:20:14.035Z,5950.00
2022-11-18T09:21:08.781Z,6274.00
2022-11-18T09:22:03.863Z,6946.00
2022-11-18T09:22:59.363Z,7523.00
2022-11-18T09:23:54.640Z,8334.00
2022-11-18T09:24:49.771Z,9223.00
2022-11-18T09:25:44.959Z,9226.00
2022-11-18T09:26:39.982Z,8757.00
2022-11-18T09:27:36.711Z,7814.00
2022-11-18T09:28:31.858Z,7592.00
2022-11-18T09:29:26.962Z,6821.00
2022-11-18T09:30:22.022Z,6870.00
2022-11-18T09:31:16.995Z,6584.00
2022-11-18T09:32:12.005Z,6223.00
2022-11-18T09:33:07.040Z,5982.00
2022-11-18T09:34:02.188Z,5674.00
2022-11-18T09:34:57.145Z,5514.00
2022-11-18T09:35:52.302Z,5631.00
2022-11-18T09:36:47.282Z,6099.00
2022-11-18T09:37:42.324Z,6379.00
2022-11-18T09:38:37.312Z,6827.00
2022-11-18T09:39:32.457Z,6396.00
2022-11-18T09:40:27.841Z,6445.00
2022-11-18T09:41:23.259Z,6629.00
2022-11-18T09:42:18.701Z,6943.00
2022-11-18T09:43:14.088Z,6506.00
2022-11-18T09:44:09.440Z,6518.00
2022-11-18T09:45:09.996Z,6932.00
2022-11-18T09:46:01.253Z,6605.00
2022-11-18T09:46:55.871Z,6660.00
2022-11-18T09:47:51.132Z,6742.00
2022-11-18T09:48:46.539Z,6612.00
2022-11-18T09:49:41.942Z,6785.00
2022-11-18T09:50:49.594Z,7079.00
2022-11-18T09:51:37.971Z,6988.00
2022-11-18T09:57:27.217Z,8245.00
2022-11-18T09:58:22.477Z,8366.00
2022-11-18T09:59:17.847Z,8853.00
2022-11-18T10:00:13.284Z,8959.00
2022-11-18T10:01:08.592Z,8886.00
2022-11-18T10:06:56.099Z,9247.00
2022-11-18T10:07:51.382Z,8886.00
2022-11-18T10:08:46.745Z,8031.00
2022-11-18T10:09:42.168Z,7390.00
2022-11-18T10:10:37.690Z,6597.00
2022-11-18T10:11:36.120Z,6730.00
2022-11-18T10:12:29.379Z,6623.00
2022-11-18T10:13:23.815Z,6819.00
2022-11-18T10:14:19.428Z,6596.00
2022-11-18T10:15:14.606Z,6492.00
2022-11-18T10:22:45.866Z,6062.00
2022-11-18T10:23:41.118Z,5405.00
2022-11-18T10:24:36.517Z,5384.00
2022-11-18T10:25:31.924Z,5924.00
2022-11-18T10:26:27.374Z,6321.00
2022-11-18T10:27:22.645Z,6240.00
2022-11-18T10:28:18.034Z,5993.00
2022-11-18T10:29:13.425Z,6258.00
2022-11-18T10:30:08.843Z,6221.00
2022-11-18T10:31:04.236Z,6163.00
2022-11-18T10:32:03.742Z,7884.00
2022-11-18T10:32:55.186Z,8830.00
2022-11-18T10:33:50.442Z,8946.00
2022-11-18T10:34:45.815Z,8090.00
2022-11-18T10:35:41.290Z,8240.00
2022-11-18T10:36:36.591Z,9417.00
2022-11-18T10:37:52.955Z,10685.00
2022-11-18T10:38:28.525Z,9241.00
2022-11-18T10:39:22.961Z,7975.00
2022-11-18T10:40:18.384Z,7763.00
2022-11-18T10:41:13.870Z,8203.00
2022-11-18T10:42:09.122Z,7552.00
2022-11-18T10:43:04.662Z,6778.00
2022-11-18T10:43:59.936Z,5258.00
2022-11-18T10:44:55.356Z,4513.00
2022-11-18T10:45:51.081Z,4042.00
2022-11-18T10:46:46.371Z,4394.00
2022-11-18T10:47:41.743Z,4408.00
2022-11-18T10:48:37.199Z,5315.00
2022-11-18T10:49:32.580Z,6220.00
2022-11-18T10:50:27.989Z,6464.00
2022-11-18T10:51:23.423Z,5862.00
2022-11-18T10:52:18.808Z,4735.00
2022-11-18T10:53:14.174Z,3872.00
2022-11-18T10:54:09.617Z,3472.00
2022-11-18T10:55:05.004Z,3889.00
2022-11-18T10:56:00.549Z,4487.00
2022-11-18T10:56:58.274Z,5544.00
2022-11-18T10:57:51.210Z,6141.00
2022-11-18T10:58:46.603Z,5806.00
2022-11-18T10:59:42.031Z,5641.00
2022-11-18T11:00:37.386Z,6074.00
2022-11-18T11:01:32.820Z,6754.00
2022-11-18T11:02:28.216Z,5917.00
2022-11-18T11:03:23.588Z,5196.00
2022-11-18T11:04:19.386Z,5473.00
2022-11-18T11:05:14.357Z,6687.00
2022-11-18T11:06:09.872Z,7560.00
2022-11-18T11:07:05.211Z,7015.00
2022-11-18T11:08:28.933Z,7204.00
2022-11-18T11:08:57.073Z,7489.00
2022-11-18T11:09:51.354Z,7043.00
2022-11-18T11:10:51.421Z,7069.00
2022-11-18T11:11:43.079Z,7478.00
2022-11-18T11:12:37.523Z,8806.00
2022-11-18T11:13:32.968Z,9352.00
2022-11-18T11:14:28.204Z,9146.00
2022-11-18T11:15:23.514Z,9170.00
2022-11-18T11:16:23.384Z,9404.00
2022-11-18T11:17:15.255Z,10032.00
2022-11-18T11:18:09.506Z,9415.00
2022-11-18T11:19:04.897Z,8827.00
2022-11-18T11:20:00.302Z,8384.00
2022-11-18T11:20:55.866Z,8841.00
2022-11-18T11:21:51.062Z,9370.00
2022-11-18T11:22:46.515Z,7926.00
2022-11-18T11:23:41.747Z,6751.00
2022-11-18T11:24:37.082Z,7071.00
2022-11-18T11:28:18.488Z,10659.00
2022-11-18T11:29:12.549Z,10656.00
2022-11-18T11:30:07.528Z,10374.00
2022-11-18T11:31:02.611Z,10763.00
2022-11-18T11:32:00.893Z,10581.00
2022-11-18T11:32:56.323Z,10665.00
2022-11-18T11:33:51.742Z,10415.00
2022-11-18T11:41:23.453Z,8630.00
2022-11-18T11:42:18.802Z,8638.00
2022-11-18T11:43:14.070Z,9208.00
2022-11-18T11:44:09.574Z,9225.00
2022-11-18T11:45:04.861Z,8586.00
2022-11-18T11:46:00.321Z,8890.00
2022-11-18T11:46:55.792Z,9150.00
2022-11-18T11:47:51.359Z,8862.00
2022-11-18T11:48:46.822Z,8507.00
2022-11-18T11:49:42.290Z,9473.00
2022-11-18T11:50:37.868Z,9149.00
2022-11-18T11:51:33.277Z,8681.00
2022-11-18T11:52:28.779Z,9024.00
2022-11-18T11:53:24.385Z,10059.00
2022-11-18T11:54:19.850Z,10340.00
2022-11-18T11:55:15.341Z,10302.00
2022-11-18T11:56:10.832Z,10872.00
2022-11-18T11:57:06.318Z,11026.00
2022-11-18T11:58:01.847Z,10953.00
2022-11-18T11:58:57.355Z,11069.00
2022-11-18T11:59:52.888Z,9832.00
2022-11-18T12:00:48.443Z,10034.00
2022-11-18T12:01:43.734Z,9258.00
2022-11-18T12:02:39.157Z,9319.00
2022-11-18T12:03:34.781Z,10190.00
2022-11-18T12:04:30.328Z,10218.00
2022-11-18T12:05:25.844Z,11527.00
2022-11-18T12:06:21.393Z,10899.00
2022-11-18T12:07:17.002Z,10433.00
2022-11-18T12:08:12.337Z,10990.00
2022-11-18T12:09:07.883Z,11019.00
2022-11-18T12:10:03.317Z,12524.00
2022-11-18T12:10:58.992Z,13094.00
2022-11-18T12:11:54.497Z,13865.00